Time;durP1;ratioP1;P1;durP2;ratioP2;P2;SDS_P1;SDS_P2;PMS_P1;PMS_P2;Temp;Humidity;BMP_temperature;BMP_pressure;BME280_temperature;BME280_humidity;BME280_pressure;Samples;Min_cycle;Max_cycle;Signal;HPM_P1;HPM_P2
2023/09/02 00:00:29;;;;;;;;;;;18.10;74.90;;;;;;5116233;28;19931;-68
2023/09/02 00:02:55;;;;;;;;;;;18.10;74.90;;;;;;5116078;28;20048;-67
2023/09/02 00:05:20;;;;;;;;;;;18.10;74.90;;;;;;5116291;28;19919;-68
2023/09/02 00:07:46;;;;;;;;;;;18.10;74.90;;;;;;5131907;27;19924;-67
2023/09/02 00:10:12;;;;;;;;;;;18.10;74.90;;;;;;5097547;28;20016;-67
2023/09/02 00:12:37;;;;;;;;;;;18.10;74.90;;;;;;5097668;28;19920;-67
2023/09/02 00:15:03;;;;;;;;;;;18.10;74.90;;;;;;5097881;28;20074;-67
2023/09/02 00:17:29;;;;;;;;;;;18.10;75.00;;;;;;5097898;28;20379;-70
2023/09/02 00:19:55;;;;;;;;;;;18.10;75.00;;;;;;5097399;28;19926;-67
2023/09/02 00:22:20;;;;;;;;;;;18.10;75.70;;;;;;5115966;28;19920;-67
2023/09/02 00:24:46;;;;;;;;;;;18.10;75.00;;;;;;5131834;27;19969;-67
2023/09/02 00:27:12;;;;;;;;;;;18.10;75.00;;;;;;5097725;28;20430;-68
2023/09/02 00:29:37;;;;;;;;;;;18.10;74.90;;;;;;5115468;28;20018;-67
2023/09/02 00:32:03;;;;;;;;;;;18.10;75.00;;;;;;5116085;28;19927;-67
2023/09/02 00:34:28;;;;;;;;;;;18.10;75.00;;;;;;5097075;28;19962;-67
2023/09/02 00:36:53;;;;;;;;;;;18.10;75.00;;;;;;5097589;28;20340;-67
2023/09/02 00:39:19;;;;;;;;;;;18.10;75.00;;;;;;5115502;28;19920;-68
2023/09/02 00:41:47;;;;;;;;;;;18.10;75.00;;;;;;5115360;28;20294;-67
2023/09/02 00:44:12;;;;;;;;;;;18.10;75.00;;;;;;5097433;28;19926;-68
2023/09/02 00:46:38;;;;;;;;;;;18.10;75.00;;;;;;5097038;28;19919;-67
2023/09/02 00:49:03;;;;;;;;;;;18.10;75.00;;;;;;5115155;28;19930;-68
2023/09/02 00:51:29;;;;;;;;;;;18.10;75.00;;;;;;5097212;28;19924;-68
2023/09/02 00:53:55;;;;;;;;;;;18.10;75.00;;;;;;5097298;28;19927;-68
2023/09/02 00:56:20;;;;;;;;;;;18.10;75.00;;;;;;5130926;27;20403;-68
2023/09/02 00:58:46;;;;;;;;;;;18.10;75.00;;;;;;5097114;28;19923;-68
2023/09/02 01:01:11;;;;;;;;;;;18.10;75.00;;;;;;5130894;27;19920;-67
2023/09/02 01:03:38;;;;;;;;;;;18.10;75.00;;;;;;5096674;28;20014;-68
2023/09/02 01:06:04;;;;;;;;;;;18.00;74.90;;;;;;5096841;28;19920;-67
2023/09/02 01:08:30;;;;;;;;;;;18.10;75.00;;;;;;5114457;28;19949;-67
2023/09/02 01:10:58;;;;;;;;;;;18.10;75.00;;;;;;5096551;28;20291;-68
2023/09/02 01:13:23;;;;;;;;;;;18.10;75.00;;;;;;5096810;28;19962;-68
2023/09/02 01:15:49;;;;;;;;;;;18.00;74.90;;;;;;5096414;28;19962;-68
2023/09/02 01:18:15;;;;;;;;;;;18.00;74.90;;;;;;5114738;28;19927;-68
2023/09/02 01:23:32;;;;;;;;;;;18.00;75.00;;;;;;5110285;27;19912;-68
2023/09/02 01:26:18;;;;;;;;;;;18.00;74.90;;;;;;5108974;28;19920;-67
2023/09/02 01:28:45;;;;;;;;;;;18.00;74.90;;;;;;5108595;28;19924;-69
2023/09/02 01:31:12;;;;;;;;;;;18.10;75.00;;;;;;5109131;28;19920;-67
2023/09/02 01:33:38;;;;;;;;;;;18.00;75.00;;;;;;5109985;28;20037;-67
2023/09/02 01:36:04;;;;;;;;;;;18.00;75.00;;;;;;5108758;28;19975;-70
2023/09/02 01:38:31;;;;;;;;;;;18.00;75.00;;;;;;5109032;28;19963;-67
2023/09/02 01:40:58;;;;;;;;;;;18.00;74.90;;;;;;5108552;28;20455;-67
2023/09/02 01:43:24;;;;;;;;;;;18.10;75.00;;;;;;5108620;28;19926;-68
2023/09/02 01:45:51;;;;;;;;;;;18.00;75.00;;;;;;5108740;28;20003;-67
2023/09/02 01:48:17;;;;;;;;;;;18.00;75.00;;;;;;5108886;28;19920;-67
2023/09/02 01:50:43;;;;;;;;;;;18.00;75.00;;;;;;5108837;28;19992;-67
2023/09/02 01:53:09;;;;;;;;;;;18.00;75.00;;;;;;5108725;28;19920;-67
2023/09/02 01:55:35;;;;;;;;;;;18.00;75.00;;;;;;5108697;28;19963;-69
2023/09/02 01:58:01;;;;;;;;;;;18.00;75.00;;;;;;5109585;28;19970;-68
2023/09/02 02:00:26;;;;;;;;;;;18.00;75.00;;;;;;5109641;28;19919;-68
2023/09/02 02:02:54;;;;;;;;;;;18.00;75.70;;;;;;5108070;28;19924;-67
2023/09/02 02:05:23;;;;;;;;;;;18.00;75.00;;;;;;5108547;28;20006;-68
2023/09/02 02:07:52;;;;;;;;;;;18.00;75.00;;;;;;5108268;28;19927;-68
2023/09/02 02:10:19;;;;;;;;;;;18.00;75.00;;;;;;5109544;28;19924;-68
2023/09/02 02:12:47;;;;;;;;;;;18.00;75.00;;;;;;5108246;28;19966;-67
2023/09/02 02:15:12;;;;;;;;;;;18.10;75.00;;;;;;5108347;28;19920;-67
2023/09/02 02:17:38;;;;;;;;;;;18.00;75.00;;;;;;5107950;28;19927;-67
2023/09/02 02:20:04;;;;;;;;;;;18.00;75.00;;;;;;5108188;28;19963;-68
2023/09/02 02:22:29;;;;;;;;;;;18.00;75.00;;;;;;5107557;28;20024;-67
2023/09/02 02:24:55;;;;;;;;;;;18.00;75.00;;;;;;5108161;28;19920;-68
2023/09/02 02:27:20;;;;;;;;;;;18.00;75.00;;;;;;5107844;28;20302;-68
2023/09/02 02:29:46;;;;;;;;;;;18.00;75.00;;;;;;5107936;28;19924;-67
2023/09/02 02:32:11;;;;;;;;;;;18.00;75.00;;;;;;5107948;28;19971;-67
2023/09/02 02:34:37;;;;;;;;;;;18.00;75.00;;;;;;5095506;28;19943;-68
2023/09/02 02:37:03;;;;;;;;;;;18.00;75.00;;;;;;5095343;28;19924;-67
2023/09/02 02:39:29;;;;;;;;;;;18.00;75.00;;;;;;5094284;28;19924;-67
2023/09/02 02:41:54;;;;;;;;;;;18.00;75.00;;;;;;5094047;28;19925;-67
2023/09/02 02:44:20;;;;;;;;;;;18.00;75.00;;;;;;5093828;28;20006;-68
2023/09/02 02:46:46;;;;;;;;;;;18.00;75.00;;;;;;5095127;28;19920;-67
2023/09/02 02:49:12;;;;;;;;;;;18.00;75.00;;;;;;5094077;28;19965;-67
2023/09/02 02:51:38;;;;;;;;;;;18.00;75.00;;;;;;5093776;28;19920;-67
2023/09/02 02:54:03;;;;;;;;;;;18.00;75.00;;;;;;5095087;28;19919;-68
2023/09/02 02:56:29;;;;;;;;;;;18.00;75.00;;;;;;5094990;28;20291;-67
2023/09/02 02:58:55;;;;;;;;;;;18.00;75.00;;;;;;5095003;28;20018;-67
2023/09/02 03:01:20;;;;;;;;;;;18.00;75.10;;;;;;5093705;28;20348;-68
2023/09/02 03:03:46;;;;;;;;;;;18.00;75.00;;;;;;5093452;28;19974;-68
2023/09/02 03:06:16;;;;;;;;;;;18.00;75.00;;;;;;5094926;28;20425;-67
2023/09/02 03:08:42;;;;;;;;;;;18.00;75.00;;;;;;5093748;28;19920;-67
2023/09/02 03:11:07;;;;;;;;;;;17.90;75.00;;;;;;5093425;28;19927;-67
2023/09/02 03:13:34;;;;;;;;;;;18.00;75.10;;;;;;5093368;28;20298;-67
2023/09/02 03:16:00;;;;;;;;;;;18.00;75.00;;;;;;5094608;28;19920;-67
2023/09/02 03:18:25;;;;;;;;;;;18.00;75.10;;;;;;5093493;28;20369;-68
2023/09/02 03:20:51;;;;;;;;;;;18.00;75.00;;;;;;5093146;28;20019;-67
2023/09/02 03:23:16;;;;;;;;;;;18.00;75.00;;;;;;5114347;28;19924;-68
2023/09/02 03:25:42;;;;;;;;;;;17.90;75.00;;;;;;5096378;28;20012;-68
2023/09/02 03:28:07;;;;;;;;;;;18.00;75.00;;;;;;5096766;28;19919;-67
2023/09/02 03:30:33;;;;;;;;;;;18.00;75.80;;;;;;5096596;28;19945;-67
2023/09/02 03:32:59;;;;;;;;;;;17.90;75.00;;;;;;5114577;28;20260;-68
2023/09/02 03:35:25;;;;;;;;;;;17.90;75.00;;;;;;5096303;28;19988;-68
2023/09/02 03:37:51;;;;;;;;;;;17.90;75.00;;;;;;5114748;28;19924;-68
2023/09/02 03:40:16;;;;;;;;;;;18.00;75.10;;;;;;5096570;28;20367;-68
2023/09/02 03:42:42;;;;;;;;;;;17.90;75.00;;;;;;5114267;28;19924;-67
2023/09/02 03:45:10;;;;;;;;;;;17.90;75.00;;;;;;5113444;28;19923;-69
2023/09/02 03:47:36;;;;;;;;;;;17.90;75.00;;;;;;5096364;28;19924;-68
2023/09/02 03:50:02;;;;;;;;;;;18.00;75.10;;;;;;5096064;28;20012;-67
2023/09/02 03:52:27;;;;;;;;;;;17.90;75.00;;;;;;5114328;28;19931;-68
2023/09/02 03:54:53;;;;;;;;;;;18.00;75.00;;;;;;5096006;28;19924;-68
2023/09/02 03:57:19;;;;;;;;;;;17.90;75.00;;;;;;5096170;28;19927;-68
2023/09/02 03:59:44;;;;;;;;;;;17.90;75.00;;;;;;5096159;28;20378;-67
2023/09/02 04:02:10;;;;;;;;;;;17.90;75.00;;;;;;5095581;28;20014;-67
2023/09/02 04:04:35;;;;;;;;;;;18.00;75.00;;;;;;5113967;28;19926;-68
2023/09/02 04:07:04;;;;;;;;;;;18.00;75.10;;;;;;5096092;28;19920;-67
2023/09/02 04:09:29;;;;;;;;;;;17.90;75.00;;;;;;5095954;28;20035;-67
2023/09/02 04:11:57;;;;;;;;;;;18.00;75.10;;;;;;5095619;28;20339;-67
2023/09/02 04:14:22;;;;;;;;;;;17.90;75.00;;;;;;5113841;28;19924;-68
2023/09/02 04:16:48;;;;;;;;;;;17.90;75.00;;;;;;5113709;28;19927;-68
2023/09/02 04:19:14;;;;;;;;;;;17.90;75.00;;;;;;5129831;27;19920;-68
2023/09/02 04:21:40;;;;;;;;;;;17.90;75.00;;;;;;5091918;28;19924;-67
2023/09/02 04:24:05;;;;;;;;;;;18.00;75.10;;;;;;5093372;28;20350;-68
2023/09/02 04:26:32;;;;;;;;;;;17.90;75.00;;;;;;5093383;28;19927;-68
2023/09/02 04:28:59;;;;;;;;;;;17.90;75.00;;;;;;5091826;28;19927;-68
2023/09/02 04:31:25;;;;;;;;;;;17.90;75.00;;;;;;5092174;28;19927;-68
2023/09/02 04:33:50;;;;;;;;;;;17.90;75.80;;;;;;5093522;28;20355;-67
2023/09/02 04:36:16;;;;;;;;;;;18.00;75.10;;;;;;5093036;28;20023;-68
2023/09/02 04:38:41;;;;;;;;;;;17.90;75.00;;;;;;5092048;28;19942;-68
2023/09/02 04:41:07;;;;;;;;;;;18.00;75.10;;;;;;5091894;28;19924;-68
2023/09/02 04:43:33;;;;;;;;;;;17.90;75.00;;;;;;5091629;28;20027;-68
2023/09/02 04:46:00;;;;;;;;;;;18.00;75.10;;;;;;5091713;28;19920;-67
2023/09/02 04:48:26;;;;;;;;;;;18.00;75.10;;;;;;5091799;28;19920;-68
2023/09/02 04:50:53;;;;;;;;;;;17.90;75.00;;;;;;5125981;27;19931;-67
2023/09/02 04:53:19;;;;;;;;;;;17.90;75.00;;;;;;5092930;28;19927;-69
2023/09/02 04:55:44;;;;;;;;;;;17.90;75.00;;;;;;5092605;28;19920;-68
2023/09/02 04:58:10;;;;;;;;;;;18.00;75.10;;;;;;5091356;28;19930;-67
2023/09/02 05:00:37;;;;;;;;;;;17.90;75.00;;;;;;5092711;28;19965;-68
2023/09/02 05:03:02;;;;;;;;;;;18.00;75.10;;;;;;5091237;28;19924;-67
2023/09/02 05:05:29;;;;;;;;;;;17.90;75.00;;;;;;5091550;28;19973;-68
2023/09/02 05:07:55;;;;;;;;;;;17.90;75.10;;;;;;5091354;28;20049;-69
2023/09/02 05:10:20;;;;;;;;;;;18.00;75.10;;;;;;5091562;28;20002;-67
2023/09/02 05:12:45;;;;;;;;;;;17.90;75.00;;;;;;5091530;28;20387;-67
2023/09/02 05:15:11;;;;;;;;;;;17.90;75.00;;;;;;5092436;28;19920;-68
2023/09/02 05:17:37;;;;;;;;;;;17.90;75.00;;;;;;5092471;28;19920;-68
2023/09/02 05:20:03;;;;;;;;;;;17.90;75.10;;;;;;5091078;28;20005;-68
2023/09/02 05:22:29;;;;;;;;;;;17.90;75.00;;;;;;5090933;28;19924;-68
2023/09/02 05:24:54;;;;;;;;;;;18.00;75.10;;;;;;5090987;28;19920;-69
2023/09/02 05:27:20;;;;;;;;;;;17.90;75.00;;;;;;5091132;28;19943;-70
2023/09/02 05:29:45;;;;;;;;;;;17.90;75.00;;;;;;5090965;28;19952;-69
2023/09/02 05:32:12;;;;;;;;;;;17.90;75.00;;;;;;5091384;28;19924;-72
2023/09/02 05:34:38;;;;;;;;;;;17.90;75.10;;;;;;5090979;28;19920;-70
2023/09/02 05:37:03;;;;;;;;;;;17.90;75.10;;;;;;5091307;28;20011;-70
2023/09/02 05:39:29;;;;;;;;;;;17.90;75.00;;;;;;5091024;28;20101;-70
2023/09/02 05:41:54;;;;;;;;;;;17.90;75.00;;;;;;5090805;28;19924;-70
2023/09/02 05:44:20;;;;;;;;;;;17.90;75.10;;;;;;5090962;28;20007;-70
2023/09/02 05:46:48;;;;;;;;;;;17.90;75.10;;;;;;5092120;28;19928;-69
2023/09/02 05:49:14;;;;;;;;;;;17.90;75.10;;;;;;5090967;28;19920;-70
2023/09/02 05:51:43;;;;;;;;;;;17.90;75.10;;;;;;5092017;28;19942;-73
2023/09/02 05:54:09;;;;;;;;;;;17.90;75.10;;;;;;5090871;28;20380;-70
2023/09/02 05:56:35;;;;;;;;;;;17.90;75.10;;;;;;5091051;28;20048;-70
2023/09/02 05:59:01;;;;;;;;;;;18.00;75.10;;;;;;5090836;28;20396;-70
2023/09/02 06:01:27;;;;;;;;;;;17.90;75.00;;;;;;5090903;28;20405;-69
2023/09/02 06:03:53;;;;;;;;;;;17.90;75.10;;;;;;5090956;28;20077;-69
2023/09/02 06:06:18;;;;;;;;;;;17.90;75.10;;;;;;5090653;28;19927;-73
2023/09/02 06:08:44;;;;;;;;;;;17.90;75.10;;;;;;5126303;27;19920;-69
2023/09/02 06:11:09;;;;;;;;;;;17.90;75.20;;;;;;5095924;28;19981;-69
2023/09/02 06:13:35;;;;;;;;;;;17.90;75.10;;;;;;5095910;28;19927;-69
2023/09/02 06:16:01;;;;;;;;;;;17.90;75.10;;;;;;5094718;28;19920;-69
2023/09/02 06:18:27;;;;;;;;;;;17.90;75.10;;;;;;5094774;28;19928;-69
2023/09/02 06:20:53;;;;;;;;;;;17.90;75.90;;;;;;5094226;28;20336;-68
2023/09/02 06:23:19;;;;;;;;;;;17.90;75.20;;;;;;5095466;28;19924;-74
2023/09/02 06:25:45;;;;;;;;;;;17.90;75.20;;;;;;5094257;28;19920;-68
2023/09/02 06:28:10;;;;;;;;;;;17.90;75.20;;;;;;5094671;28;19945;-68
2023/09/02 06:30:36;;;;;;;;;;;17.90;75.20;;;;;;5094173;28;20371;-68
2023/09/02 06:33:02;;;;;;;;;;;17.90;75.20;;;;;;5094119;28;19927;-68
2023/09/02 06:35:30;;;;;;;;;;;17.90;75.20;;;;;;5094379;28;19920;-72
2023/09/02 06:37:56;;;;;;;;;;;17.90;75.20;;;;;;5094256;28;20011;-72
2023/09/02 06:40:21;;;;;;;;;;;17.90;75.30;;;;;;5128202;27;20525;-68
2023/09/02 06:42:47;;;;;;;;;;;17.90;75.30;;;;;;5128156;27;19932;-68
2023/09/02 06:45:12;;;;;;;;;;;17.90;75.30;;;;;;5093935;28;20379;-68
2023/09/02 06:47:38;;;;;;;;;;;17.90;75.30;;;;;;5093770;28;19919;-68
2023/09/02 06:50:03;;;;;;;;;;;17.90;75.30;;;;;;5094153;28;19920;-72
2023/09/02 06:52:29;;;;;;;;;;;17.90;75.30;;;;;;5094943;28;20358;-70
2023/09/02 06:54:54;;;;;;;;;;;17.90;75.30;;;;;;5093751;28;19970;-69
2023/09/02 06:57:20;;;;;;;;;;;17.90;75.30;;;;;;5128039;27;19924;-69
2023/09/02 06:59:45;;;;;;;;;;;17.90;75.30;;;;;;5093652;28;19955;-68
2023/09/02 07:02:11;;;;;;;;;;;17.90;75.30;;;;;;5094743;28;20001;-68
2023/09/02 07:04:36;;;;;;;;;;;17.90;75.30;;;;;;5093574;28;19946;-68
2023/09/02 07:07:02;;;;;;;;;;;17.90;75.30;;;;;;5093830;28;19920;-68
2023/09/02 07:09:27;;;;;;;;;;;17.90;75.30;;;;;;5094642;28;19977;-68
2023/09/02 07:11:53;;;;;;;;;;;17.90;75.30;;;;;;5093696;28;19928;-68
2023/09/02 07:14:18;;;;;;;;;;;17.90;75.50;;;;;;5093695;28;20359;-68
2023/09/02 07:16:44;;;;;;;;;;;17.90;75.30;;;;;;5093637;28;19927;-70
2023/09/02 07:19:09;;;;;;;;;;;17.90;75.30;;;;;;5092594;28;20415;-68
2023/09/02 07:21:35;;;;;;;;;;;17.90;75.30;;;;;;5100091;28;19924;-67
2023/09/02 07:24:00;;;;;;;;;;;17.90;75.40;;;;;;5096447;28;19967;-67
2023/09/02 07:26:28;;;;;;;;;;;17.90;75.40;;;;;;5096485;28;19920;-69
2023/09/02 07:28:54;;;;;;;;;;;17.90;75.50;;;;;;5096407;28;19920;-67
2023/09/02 07:31:20;;;;;;;;;;;17.90;75.60;;;;;;5096500;28;19920;-68
2023/09/02 07:33:45;;;;;;;;;;;17.90;75.70;;;;;;5096301;28;19919;-66
2023/09/02 07:36:12;;;;;;;;;;;18.00;75.80;;;;;;5096618;28;19965;-67
2023/09/02 07:38:38;;;;;;;;;;;18.00;76.00;;;;;;5093160;28;19927;-70
2023/09/02 07:41:03;;;;;;;;;;;18.10;76.20;;;;;;5113660;28;19934;-66
2023/09/02 07:43:29;;;;;;;;;;;18.10;76.20;;;;;;5095619;28;19920;-65
2023/09/02 07:45:55;;;;;;;;;;;18.10;76.20;;;;;;5094982;28;19920;-66
2023/09/02 07:48:21;;;;;;;;;;;18.10;76.20;;;;;;5095443;28;20435;-66
2023/09/02 07:50:46;;;;;;;;;;;18.10;76.20;;;;;;5095456;28;19920;-71
2023/09/02 07:53:12;;;;;;;;;;;18.20;76.40;;;;;;5095847;28;19920;-66
2023/09/02 07:55:38;;;;;;;;;;;18.20;76.50;;;;;;5077896;28;19969;-66
2023/09/02 07:58:04;;;;;;;;;;;18.20;76.60;;;;;;5096189;28;19920;-67
2023/09/02 08:00:30;;;;;;;;;;;18.30;76.60;;;;;;5114259;28;19974;-69
2023/09/02 08:02:57;;;;;;;;;;;18.30;76.70;;;;;;5094196;28;19930;-67
2023/09/02 08:05:22;;;;;;;;;;;18.30;76.70;;;;;;5112599;28;19926;-70
2023/09/02 08:07:48;;;;;;;;;;;18.30;76.70;;;;;;5113214;28;20010;-70
2023/09/02 08:10:14;;;;;;;;;;;18.40;76.70;;;;;;5095160;28;20263;-68
2023/09/02 08:12:39;;;;;;;;;;;18.40;76.70;;;;;;5095149;28;19920;-67
2023/09/02 08:15:05;;;;;;;;;;;18.40;76.60;;;;;;5113834;28;19943;-67
2023/09/02 08:17:34;;;;;;;;;;;18.40;76.60;;;;;;5130146;27;19928;-68
2023/09/02 08:20:00;;;;;;;;;;;18.40;76.60;;;;;;5095065;28;20398;-67
2023/09/02 08:22:25;;;;;;;;;;;18.40;76.60;;;;;;5095216;28;19924;-67
2023/09/02 08:24:51;;;;;;;;;;;18.50;76.60;;;;;;5095219;28;20438;-66
2023/09/02 08:27:16;;;;;;;;;;;18.40;76.50;;;;;;5111896;28;19926;-67
2023/09/02 08:29:42;;;;;;;;;;;18.60;76.60;;;;;;5094681;28;19942;-66
2023/09/02 08:32:07;;;;;;;;;;;18.50;76.60;;;;;;5093650;28;19920;-68
2023/09/02 08:34:33;;;;;;;;;;;18.40;76.50;;;;;;5094398;28;19923;-67
2023/09/02 08:36:58;;;;;;;;;;;18.50;76.50;;;;;;5111242;28;19955;-67
2023/09/02 08:39:24;;;;;;;;;;;18.50;76.50;;;;;;5094520;28;19920;-68
2023/09/02 08:41:49;;;;;;;;;;;18.50;76.50;;;;;;5112411;28;19924;-72
2023/09/02 08:44:15;;;;;;;;;;;18.50;76.50;;;;;;5094942;28;19926;-70
2023/09/02 08:46:44;;;;;;;;;;;18.50;76.50;;;;;;5111926;28;19920;-67
2023/09/02 08:49:10;;;;;;;;;;;18.50;76.50;;;;;;5093359;28;20425;-67
2023/09/02 08:51:36;;;;;;;;;;;18.50;76.40;;;;;;5091592;28;19962;-68
2023/09/02 08:54:01;;;;;;;;;;;18.50;76.40;;;;;;5093537;28;19924;-67
2023/09/02 08:56:28;;;;;;;;;;;18.50;76.50;;;;;;5094787;28;19923;-68
2023/09/02 08:58:54;;;;;;;;;;;18.60;76.40;;;;;;5094997;28;19920;-67
2023/09/02 09:01:20;;;;;;;;;;;18.50;76.30;;;;;;5113168;28;19919;-69
2023/09/02 09:03:49;;;;;;;;;;;18.50;76.30;;;;;;5094032;28;19920;-68
2023/09/02 09:06:16;;;;;;;;;;;18.50;76.30;;;;;;5112239;28;19943;-68
2023/09/02 09:08:42;;;;;;;;;;;18.50;76.20;;;;;;5093915;28;19935;-68
2023/09/02 09:11:09;;;;;;;;;;;18.50;76.30;;;;;;5112910;28;19919;-67
2023/09/02 09:13:35;;;;;;;;;;;18.50;76.30;;;;;;5112812;28;19973;-68
2023/09/02 09:16:01;;;;;;;;;;;18.50;76.40;;;;;;5094940;28;19924;-68
2023/09/02 09:18:27;;;;;;;;;;;18.50;76.40;;;;;;5112898;28;19920;-69
2023/09/02 09:20:53;;;;;;;;;;;18.40;76.40;;;;;;5112815;28;20392;-68
2023/09/02 09:23:19;;;;;;;;;;;18.50;76.30;;;;;;5094522;28;20366;-68
2023/09/02 09:25:49;;;;;;;;;;;18.40;76.30;;;;;;5094761;28;19978;-69
2023/09/02 09:28:14;;;;;;;;;;;18.40;76.30;;;;;;5094781;28;20260;-69
2023/09/02 09:30:40;;;;;;;;;;;18.50;76.40;;;;;;5094816;28;19920;-69
2023/09/02 09:33:06;;;;;;;;;;;18.40;76.40;;;;;;5094236;28;19962;-69
2023/09/02 09:35:32;;;;;;;;;;;18.40;76.40;;;;;;5092800;28;20386;-69
2023/09/02 09:37:58;;;;;;;;;;;18.40;76.40;;;;;;5093036;28;20134;-69
2023/09/02 09:40:31;;;;;;;;;;;18.40;76.40;;;;;;5093046;28;19931;-69
2023/09/02 09:42:57;;;;;;;;;;;18.30;76.40;;;;;;5093250;28;20352;-69
2023/09/02 09:45:22;;;;;;;;;;;18.30;76.50;;;;;;5115413;28;19920;-73
2023/09/02 09:47:48;;;;;;;;;;;18.30;76.50;;;;;;5097342;28;19920;-67
2023/09/02 09:50:14;;;;;;;;;;;18.30;76.40;;;;;;5115993;28;19920;-67
2023/09/02 09:52:40;;;;;;;;;;;18.30;76.40;;;;;;5098305;28;19927;-67
2023/09/02 09:55:06;;;;;;;;;;;18.30;76.40;;;;;;5116474;28;19919;-67
2023/09/02 09:57:34;;;;;;;;;;;18.30;76.40;;;;;;5098531;28;19969;-70
2023/09/02 10:00:00;;;;;;;;;;;18.30;76.40;;;;;;5132607;27;20367;-67
2023/09/02 10:02:25;;;;;;;;;;;18.20;76.40;;;;;;5098200;28;20020;-68
2023/09/02 10:04:52;;;;;;;;;;;18.20;76.40;;;;;;5132530;27;19924;-68
2023/09/02 10:07:23;;;;;;;;;;;18.30;76.50;;;;;;5116370;28;19919;-70
2023/09/02 10:09:49;;;;;;;;;;;18.30;76.40;;;;;;5097880;28;20002;-67
2023/09/02 10:12:15;;;;;;;;;;;18.30;76.50;;;;;;5132132;27;20006;-67
2023/09/02 10:14:42;;;;;;;;;;;18.20;76.50;;;;;;5116362;28;20366;-67
2023/09/02 10:17:09;;;;;;;;;;;18.30;76.50;;;;;;5116309;28;20299;-67
2023/09/02 10:19:34;;;;;;;;;;;18.20;76.40;;;;;;5116006;28;19920;-67
2023/09/02 10:22:01;;;;;;;;;;;18.20;76.50;;;;;;5115687;28;19969;-67
2023/09/02 10:24:28;;;;;;;;;;;18.20;76.50;;;;;;5115931;28;20260;-67
2023/09/02 10:26:56;;;;;;;;;;;18.20;76.50;;;;;;5097647;28;19920;-70
2023/09/02 10:29:25;;;;;;;;;;;18.20;76.60;;;;;;5097575;28;19964;-68
2023/09/02 10:31:52;;;;;;;;;;;18.20;76.60;;;;;;5097887;28;19919;-67
2023/09/02 10:34:25;;;;;;;;;;;18.20;76.60;;;;;;5131713;27;20214;-72
2023/09/02 10:36:59;;;;;;;;;;;18.20;76.60;;;;;;5097834;28;19920;-67
2023/09/02 10:39:44;;;;;;;;;;;18.20;76.70;;;;;;5097570;28;19943;-73
2023/09/02 10:42:11;;;;;;;;;;;18.20;76.70;;;;;;5097328;28;19930;-70
2023/09/02 10:44:36;;;;;;;;;;;18.20;76.90;;;;;;5115536;28;20303;-67
2023/09/02 10:47:02;;;;;;;;;;;18.20;76.80;;;;;;5097337;28;19920;-67
2023/09/02 10:49:28;;;;;;;;;;;18.20;76.80;;;;;;5115557;28;19965;-67
2023/09/02 10:51:54;;;;;;;;;;;18.20;76.90;;;;;;5097374;28;19923;-68
2023/09/02 10:54:20;;;;;;;;;;;18.20;76.90;;;;;;5131173;27;20006;-68
2023/09/02 10:56:45;;;;;;;;;;;18.20;76.90;;;;;;5097233;28;20030;-67
2023/09/02 10:59:26;;;;;;;;;;;18.20;77.00;;;;;;5097073;28;19927;-68
2023/09/02 11:01:51;;;;;;;;;;;18.20;77.00;;;;;;5096963;28;19931;-68
2023/09/02 11:04:37;;;;;;;;;;;18.20;77.10;;;;;;5097350;28;19920;-72
2023/09/02 11:07:24;;;;;;;;;;;18.20;77.10;;;;;;5096583;28;19919;-67
2023/09/02 11:12:30;;;;;;;;;;;18.20;77.10;;;;;;5110322;27;19916;-67
2023/09/02 11:15:15;;;;;;;;;;;18.20;77.00;;;;;;5108889;28;19957;-68
2023/09/02 11:17:41;;;;;;;;;;;18.20;76.90;;;;;;5109010;28;19934;-67
2023/09/02 11:20:07;;;;;;;;;;;18.20;76.90;;;;;;5109052;28;19920;-68
2023/09/02 11:22:54;;;;;;;;;;;18.20;77.00;;;;;;5109104;28;19965;-67
2023/09/02 11:28:08;;;;;;;;;;;18.20;77.00;;;;;;5110234;27;19918;-68
2023/09/02 11:30:35;;;;;;;;;;;18.20;76.90;;;;;;5108999;28;19920;-67
2023/09/02 11:33:00;;;;;;;;;;;18.20;77.10;;;;;;5103270;28;19947;-67
2023/09/02 11:38:22;;;;;;;;;;;18.30;77.70;;;;;;5110195;27;20374;-71
2023/09/02 11:40:48;;;;;;;;;;;18.30;77.90;;;;;;5108682;28;19920;-67
2023/09/02 11:43:20;;;;;;;;;;;18.40;78.20;;;;;;5108706;28;19927;-67
2023/09/02 11:45:46;;;;;;;;;;;18.40;78.20;;;;;;5109011;28;19920;-67
2023/09/02 11:48:12;;;;;;;;;;;18.50;78.40;;;;;;5107810;28;20023;-72
2023/09/02 11:50:38;;;;;;;;;;;18.50;78.10;;;;;;5107540;28;20498;-67
2023/09/02 11:53:04;;;;;;;;;;;18.50;78.00;;;;;;5109032;28;19920;-68
2023/09/02 11:55:29;;;;;;;;;;;18.50;78.00;;;;;;5108791;28;20019;-68
2023/09/02 11:57:55;;;;;;;;;;;18.50;78.10;;;;;;5108474;28;20065;-70
2023/09/02 12:00:21;;;;;;;;;;;18.50;78.20;;;;;;5108679;28;19920;-67
2023/09/02 12:02:47;;;;;;;;;;;18.40;77.90;;;;;;5109846;28;20384;-67
2023/09/02 12:05:13;;;;;;;;;;;18.40;77.90;;;;;;5109109;28;20279;-72
2023/09/02 12:07:41;;;;;;;;;;;18.40;77.80;;;;;;5108664;28;19920;-68
2023/09/02 12:10:09;;;;;;;;;;;18.40;78.20;;;;;;5109685;28;19989;-68
2023/09/02 12:12:38;;;;;;;;;;;18.40;78.10;;;;;;5108622;28;19924;-67
2023/09/02 12:15:04;;;;;;;;;;;18.40;78.10;;;;;;5108342;28;19920;-68
2023/09/02 12:17:29;;;;;;;;;;;18.40;78.20;;;;;;5108225;28;19924;-73
2023/09/02 12:19:55;;;;;;;;;;;18.40;78.20;;;;;;5108554;28;19927;-67
2023/09/02 12:22:21;;;;;;;;;;;18.40;78.10;;;;;;5108139;28;19920;-67
2023/09/02 12:24:47;;;;;;;;;;;18.40;78.20;;;;;;5108400;28;19973;-68
2023/09/02 12:27:16;;;;;;;;;;;18.40;78.20;;;;;;5108134;28;19924;-67
2023/09/02 12:29:52;;;;;;;;;;;18.40;78.20;;;;;;5109424;28;19920;-67
2023/09/02 12:32:18;;;;;;;;;;;18.40;78.10;;;;;;5108001;28;19945;-68
2023/09/02 12:34:43;;;;;;;;;;;18.40;78.20;;;;;;5107868;28;20035;-67
2023/09/02 12:37:16;;;;;;;;;;;18.40;78.10;;;;;;5107759;28;19924;-70
2023/09/02 12:39:42;;;;;;;;;;;18.40;78.10;;;;;;5109132;28;19984;-68
2023/09/02 12:42:15;;;;;;;;;;;18.30;78.10;;;;;;5108089;28;19986;-68
2023/09/02 12:45:00;;;;;;;;;;;18.40;78.30;;;;;;5109037;28;20367;-68
2023/09/02 12:47:26;;;;;;;;;;;18.30;77.90;;;;;;5108440;28;20026;-67
2023/09/02 12:49:53;;;;;;;;;;;18.40;78.10;;;;;;5093797;28;19924;-68
2023/09/02 12:52:22;;;;;;;;;;;18.40;78.10;;;;;;5094062;28;19920;-68
2023/09/02 12:54:55;;;;;;;;;;;18.40;77.90;;;;;;5095292;28;19943;-68
2023/09/02 12:57:22;;;;;;;;;;;18.40;78.00;;;;;;5093898;28;20329;-68
2023/09/02 12:59:48;;;;;;;;;;;18.40;78.00;;;;;;5093829;28;19920;-70
2023/09/02 13:02:14;;;;;;;;;;;18.40;78.10;;;;;;5093727;28;19927;-68
2023/09/02 13:04:39;;;;;;;;;;;18.40;77.80;;;;;;5094021;28;19978;-70
2023/09/02 13:07:05;;;;;;;;;;;18.40;77.90;;;;;;5094236;28;19926;-68
2023/09/02 13:09:30;;;;;;;;;;;18.40;78.00;;;;;;5095093;28;19924;-68
2023/09/02 13:11:56;;;;;;;;;;;18.40;78.00;;;;;;5095067;28;20454;-68
2023/09/02 13:14:22;;;;;;;;;;;18.40;78.00;;;;;;5094938;28;19927;-68
2023/09/02 13:16:47;;;;;;;;;;;18.40;78.20;;;;;;5101799;28;19971;-68
2023/09/02 13:19:13;;;;;;;;;;;18.40;78.80;;;;;;5094806;28;20028;-73
2023/09/02 13:21:38;;;;;;;;;;;18.40;78.10;;;;;;5093325;28;19920;-68
2023/09/02 13:24:04;;;;;;;;;;;18.40;78.00;;;;;;5104422;28;19924;-67
2023/09/02 13:26:30;;;;;;;;;;;18.40;78.20;;;;;;5113701;28;20386;-68
2023/09/02 13:28:56;;;;;;;;;;;18.40;77.90;;;;;;5113702;28;19920;-68
2023/09/02 13:31:22;;;;;;;;;;;18.40;77.90;;;;;;5111538;28;19927;-73
2023/09/02 13:33:48;;;;;;;;;;;18.30;77.90;;;;;;5113866;28;19920;-68
2023/09/02 13:36:13;;;;;;;;;;;18.40;77.80;;;;;;5116223;27;19928;-68
2023/09/02 13:38:40;;;;;;;;;;;18.40;77.80;;;;;;5110741;28;19924;-68
2023/09/02 13:41:06;;;;;;;;;;;18.40;77.90;;;;;;5096265;28;19919;-68
2023/09/02 13:43:32;;;;;;;;;;;18.40;77.90;;;;;;5096844;28;20196;-68
2023/09/02 13:45:58;;;;;;;;;;;18.40;77.90;;;;;;5130676;27;20560;-68
2023/09/02 13:48:24;;;;;;;;;;;18.40;77.80;;;;;;5095744;28;20401;-68
2023/09/02 13:50:50;;;;;;;;;;;18.40;77.60;;;;;;5096035;28;20007;-68
2023/09/02 13:53:17;;;;;;;;;;;18.40;77.70;;;;;;5116000;27;20006;-68
2023/09/02 13:55:44;;;;;;;;;;;18.40;77.90;;;;;;5116615;27;19925;-68
2023/09/02 13:58:10;;;;;;;;;;;18.40;77.80;;;;;;5116447;27;19919;-68
2023/09/02 14:00:37;;;;;;;;;;;18.40;77.90;;;;;;5115382;27;20442;-68
2023/09/02 14:03:03;;;;;;;;;;;18.40;78.00;;;;;;5113906;28;19959;-68
2023/09/02 14:05:28;;;;;;;;;;;18.40;78.00;;;;;;5095050;28;19919;-68
2023/09/02 14:07:59;;;;;;;;;;;18.40;77.80;;;;;;5095958;28;19930;-68
2023/09/02 14:10:24;;;;;;;;;;;18.40;77.90;;;;;;5114259;28;20014;-68
2023/09/02 14:12:50;;;;;;;;;;;18.40;77.90;;;;;;5096146;28;19955;-68
2023/09/02 14:15:15;;;;;;;;;;;18.50;78.00;;;;;;5095904;28;19930;-68
2023/09/02 14:17:41;;;;;;;;;;;18.40;77.80;;;;;;5133638;27;19919;-71
2023/09/02 14:20:07;;;;;;;;;;;18.40;77.90;;;;;;5107037;28;20412;-71
2023/09/02 14:22:32;;;;;;;;;;;18.40;77.90;;;;;;5095589;28;20291;-68